createdAt,value
2022-08-28T00:01:31.073Z,11.05
2022-08-28T00:03:02.817Z,9.91
2022-08-28T00:04:34.674Z,11.75
2022-08-28T00:06:06.018Z,12.01
2022-08-28T00:07:37.500Z,10.12
2022-08-28T00:09:08.888Z,9.95
2022-08-28T00:10:42.870Z,11.49
2022-08-28T00:12:14.396Z,10.90
2022-08-28T00:13:45.952Z,8.74
2022-08-28T00:15:17.419Z,8.79
2022-08-28T00:16:48.858Z,9.49
2022-08-28T00:18:20.508Z,10.61
2022-08-28T00:19:52.015Z,9.59
2022-08-28T00:21:23.360Z,10.83
2022-08-28T00:22:55.089Z,12.81
2022-08-28T00:24:26.493Z,15.10
2022-08-28T00:25:57.898Z,10.44
2022-08-28T00:27:30.294Z,13.79
2022-08-28T00:29:01.700Z,9.81
2022-08-28T00:30:33.430Z,10.83
2022-08-28T00:32:04.840Z,13.74
2022-08-28T00:33:36.245Z,11.35
2022-08-28T00:35:07.548Z,11.97
2022-08-28T00:36:39.786Z,13.26
2022-08-28T00:38:11.284Z,14.22
2022-08-28T00:39:42.867Z,11.96
2022-08-28T00:41:15.425Z,12.70
2022-08-28T00:42:46.918Z,13.43
2022-08-28T00:44:18.271Z,11.94
2022-08-28T00:45:49.691Z,14.34
2022-08-28T00:47:21.180Z,11.22
2022-08-28T00:48:52.724Z,10.68
2022-08-28T00:50:24.215Z,14.88
2022-08-28T00:51:55.607Z,12.87
2022-08-28T00:53:29.076Z,13.60
2022-08-28T00:55:04.744Z,11.04
2022-08-28T00:56:36.116Z,11.12
2022-08-28T00:58:07.395Z,12.54
2022-08-28T00:59:38.723Z,13.19
2022-08-28T01:01:10.015Z,13.70
2022-08-28T01:02:41.542Z,11.96
2022-08-28T01:04:12.988Z,12.45
2022-08-28T01:05:44.659Z,10.13
2022-08-28T01:07:16.293Z,12.39
2022-08-28T01:08:49.849Z,14.55
2022-08-28T01:10:22.152Z,11.60
2022-08-28T01:11:53.490Z,15.76
2022-08-28T01:13:25.001Z,12.85
2022-08-28T01:14:56.584Z,14.90
2022-08-28T01:16:28.383Z,14.50
2022-08-28T01:18:08.038Z,14.14
2022-08-28T01:19:40.285Z,15.22
2022-08-28T01:21:11.898Z,11.69
2022-08-28T01:22:52.203Z,12.16
2022-08-28T01:24:23.549Z,14.72
2022-08-28T01:25:54.949Z,15.12
2022-08-28T01:27:26.641Z,14.89
2022-08-28T01:28:58.413Z,13.00
2022-08-28T01:30:29.760Z,13.50
2022-08-28T01:32:01.077Z,15.20
2022-08-28T01:33:32.449Z,15.31
2022-08-28T01:35:03.766Z,12.58
2022-08-28T01:36:35.147Z,14.35
2022-08-28T01:38:06.483Z,14.25
2022-08-28T01:39:37.786Z,13.80
2022-08-28T01:41:09.215Z,14.86
2022-08-28T01:42:40.712Z,12.05
2022-08-28T01:44:12.035Z,13.76
2022-08-28T01:45:45.357Z,15.47
2022-08-28T01:47:16.852Z,14.52
2022-08-28T01:48:48.381Z,13.67
2022-08-28T01:50:19.724Z,16.13
2022-08-28T01:51:51.295Z,14.84
2022-08-28T01:53:26.332Z,15.47
2022-08-28T01:55:05.103Z,14.57
2022-08-28T01:56:36.811Z,15.74
2022-08-28T01:58:08.210Z,15.75
2022-08-28T01:59:39.530Z,13.72
2022-08-28T02:01:12.489Z,17.01
2022-08-28T02:02:43.832Z,14.33
2022-08-28T02:04:15.235Z,11.77
2022-08-28T02:05:46.651Z,14.03
2022-08-28T02:07:18.130Z,15.27
2022-08-28T02:08:49.474Z,14.55
2022-08-28T02:10:20.950Z,14.44
2022-08-28T02:11:52.557Z,13.71
2022-08-28T02:13:25.677Z,14.17
2022-08-28T02:14:57.191Z,16.87
2022-08-28T02:16:28.630Z,15.54
2022-08-28T02:17:59.975Z,15.43
2022-08-28T02:19:31.420Z,14.50
2022-08-28T02:21:02.821Z,14.22
2022-08-28T02:22:34.270Z,16.24
2022-08-28T02:24:05.692Z,16.16
2022-08-28T02:25:37.129Z,17.70
2022-08-28T02:27:08.906Z,15.14
2022-08-28T02:28:40.322Z,15.72
2022-08-28T02:30:11.609Z,16.62
2022-08-28T02:31:43.009Z,15.58
2022-08-28T02:33:14.414Z,15.40
2022-08-28T02:34:46.027Z,15.11
2022-08-28T02:36:17.417Z,15.42
2022-08-28T02:37:48.891Z,18.60
2022-08-28T02:39:20.298Z,18.62
2022-08-28T02:40:51.869Z,13.37
2022-08-28T02:42:23.158Z,15.70
2022-08-28T02:43:54.538Z,15.72
2022-08-28T02:45:25.920Z,18.07
2022-08-28T02:46:58.391Z,16.64
2022-08-28T02:48:29.796Z,16.19
2022-08-28T02:50:01.177Z,13.21
2022-08-28T02:51:32.526Z,16.62
2022-08-28T02:53:03.806Z,15.87
2022-08-28T02:54:35.095Z,16.43
2022-08-28T02:56:06.525Z,14.04
2022-08-28T02:57:38.056Z,16.18
2022-08-28T02:59:09.710Z,17.48
2022-08-28T03:00:41.040Z,16.35
2022-08-28T03:02:12.494Z,14.35
2022-08-28T03:03:43.994Z,15.40
2022-08-28T03:05:15.575Z,16.39
2022-08-28T03:06:47.044Z,13.53
2022-08-28T03:08:18.332Z,14.37
2022-08-28T03:09:49.852Z,15.42
2022-08-28T03:11:21.356Z,13.62
2022-08-28T03:12:52.999Z,15.20
2022-08-28T03:14:24.257Z,13.00
2022-08-28T03:15:55.974Z,13.79
2022-08-28T03:17:27.700Z,15.15
2022-08-28T03:18:59.132Z,13.90
2022-08-28T03:20:30.530Z,15.55
2022-08-28T03:22:01.904Z,15.84
2022-08-28T03:23:33.281Z,15.19
2022-08-28T03:25:04.645Z,12.79
2022-08-28T03:26:36.036Z,14.10
2022-08-28T03:28:07.435Z,15.46
2022-08-28T03:29:38.749Z,16.75
2022-08-28T03:31:10.147Z,16.55
2022-08-28T03:32:41.496Z,16.02
2022-08-28T03:34:13.050Z,14.48
2022-08-28T03:35:44.672Z,17.86
2022-08-28T03:37:16.070Z,16.50
2022-08-28T03:38:47.373Z,15.97
2022-08-28T03:40:18.932Z,15.13
2022-08-28T03:41:50.841Z,16.41
2022-08-28T03:43:22.317Z,14.92
2022-08-28T03:44:53.833Z,15.76
2022-08-28T03:46:25.259Z,14.52
2022-08-28T03:47:56.570Z,14.14
2022-08-28T03:49:29.223Z,15.66
2022-08-28T03:51:01.332Z,16.75
2022-08-28T03:52:32.995Z,14.82
2022-08-28T03:54:05.224Z,14.14
2022-08-28T03:55:36.624Z,13.84
2022-08-28T03:57:07.870Z,15.31
2022-08-28T03:58:39.168Z,16.56
2022-08-28T04:00:10.605Z,15.90
2022-08-28T04:01:41.967Z,15.76
2022-08-28T04:03:13.623Z,15.38
2022-08-28T04:04:45.051Z,15.41
2022-08-28T04:06:16.410Z,13.46
2022-08-28T04:07:47.729Z,15.57
2022-08-28T04:09:19.194Z,16.59
2022-08-28T04:10:50.565Z,14.93
2022-08-28T04:12:21.966Z,14.63
2022-08-28T04:13:53.343Z,14.84
2022-08-28T04:15:24.687Z,15.48
2022-08-28T04:16:58.605Z,16.78
2022-08-28T04:18:32.874Z,16.83
2022-08-28T04:20:04.129Z,17.66
2022-08-28T04:21:35.511Z,15.76
2022-08-28T04:23:06.804Z,16.02
2022-08-28T04:24:38.174Z,19.03
2022-08-28T04:26:09.435Z,16.75
2022-08-28T04:27:40.743Z,17.01
2022-08-28T04:29:12.159Z,16.72
2022-08-28T04:30:43.551Z,16.79
2022-08-28T04:32:15.114Z,15.48
2022-08-28T04:33:46.479Z,15.97
2022-08-28T04:35:18.167Z,14.90
2022-08-28T04:36:49.466Z,15.70
2022-08-28T04:38:21.163Z,18.11
2022-08-28T04:39:52.588Z,15.84
2022-08-28T04:41:24.213Z,18.86
2022-08-28T04:42:55.766Z,14.27
2022-08-28T04:44:27.112Z,14.60
2022-08-28T04:45:59.338Z,14.39
2022-08-28T04:47:30.910Z,13.96
2022-08-28T04:49:04.060Z,14.97
2022-08-28T04:50:35.363Z,15.49
2022-08-28T04:52:06.636Z,15.19
2022-08-28T04:53:37.946Z,13.82
2022-08-28T04:55:09.399Z,13.97
2022-08-28T04:56:40.816Z,17.56
2022-08-28T04:58:12.759Z,14.96
2022-08-28T04:59:44.232Z,14.93
2022-08-28T05:01:15.847Z,14.44
2022-08-28T05:02:47.296Z,16.15
2022-08-28T05:04:18.642Z,14.36
2022-08-28T05:05:50.733Z,16.79
2022-08-28T05:07:22.168Z,14.45
2022-08-28T05:08:53.694Z,15.44
2022-08-28T05:10:25.091Z,16.65
2022-08-28T05:11:56.865Z,16.06
2022-08-28T05:13:28.147Z,18.55
2022-08-28T05:14:59.538Z,17.79
2022-08-28T05:16:30.924Z,14.95
2022-08-28T05:18:02.408Z,16.81
2022-08-28T05:19:33.701Z,16.76
2022-08-28T05:21:05.040Z,15.76
2022-08-28T05:22:36.344Z,17.39
2022-08-28T05:24:07.688Z,16.72
2022-08-28T05:25:39.141Z,17.43
2022-08-28T05:27:10.584Z,17.22
2022-08-28T05:28:41.989Z,17.09
2022-08-28T05:30:14.271Z,17.46
2022-08-28T05:31:46.347Z,16.68
2022-08-28T05:33:18.261Z,14.54
2022-08-28T05:34:49.804Z,14.12
2022-08-28T05:36:21.269Z,15.05
2022-08-28T05:37:52.748Z,13.83
2022-08-28T05:39:24.290Z,17.31
2022-08-28T05:40:55.722Z,16.97
2022-08-28T05:42:31.011Z,14.64
2022-08-28T05:44:03.236Z,15.87
2022-08-28T05:45:34.594Z,17.30
2022-08-28T05:47:05.920Z,17.38
2022-08-28T05:48:39.604Z,15.54
2022-08-28T05:50:11.300Z,15.71
2022-08-28T05:51:42.608Z,17.47
2022-08-28T05:53:14.007Z,17.00
2022-08-28T05:54:45.486Z,14.73
2022-08-28T05:56:16.776Z,15.26
2022-08-28T05:57:48.240Z,17.60
2022-08-28T05:59:19.632Z,15.32
2022-08-28T06:02:48.367Z,12.69
2022-08-28T06:04:22.010Z,14.18
2022-08-28T06:05:53.608Z,17.14
2022-08-28T06:07:24.938Z,17.63
2022-08-28T06:08:58.560Z,13.74
2022-08-28T06:10:30.658Z,14.90
2022-08-28T06:12:02.359Z,16.98
2022-08-28T06:13:34.052Z,13.29
2022-08-28T06:15:05.779Z,13.71
2022-08-28T06:16:37.182Z,13.20
2022-08-28T06:18:08.707Z,13.70
2022-08-28T06:19:41.653Z,15.27
2022-08-28T06:21:13.160Z,16.15
2022-08-28T06:22:44.868Z,14.59
2022-08-28T06:24:16.516Z,13.70
2022-08-28T06:25:47.927Z,15.04
2022-08-28T06:27:20.390Z,16.77
2022-08-28T06:28:52.800Z,12.93
2022-08-28T06:30:24.165Z,14.44
2022-08-28T06:31:55.989Z,12.71
2022-08-28T06:33:27.395Z,12.13
2022-08-28T06:35:00.146Z,14.63
2022-08-28T06:36:31.504Z,14.78
2022-08-28T06:38:02.929Z,13.79
2022-08-28T06:39:34.302Z,14.30
2022-08-28T06:41:05.669Z,13.56
2022-08-28T06:42:37.010Z,14.32
2022-08-28T06:44:08.710Z,11.94
2022-08-28T06:45:40.171Z,14.16
2022-08-28T06:47:11.756Z,15.30
2022-08-28T06:48:44.050Z,12.80
2022-08-28T06:50:15.494Z,13.19
2022-08-28T06:52:11.967Z,13.45
2022-08-28T06:53:44.400Z,13.37
2022-08-28T06:55:15.803Z,10.50
2022-08-28T06:56:47.247Z,13.76
2022-08-28T06:58:18.716Z,11.98
2022-08-28T06:59:50.242Z,12.61
2022-08-28T07:01:22.078Z,12.82
2022-08-28T07:02:53.518Z,13.23
2022-08-28T07:04:24.936Z,14.45
2022-08-28T07:05:56.377Z,12.52
2022-08-28T07:07:32.434Z,12.71
2022-08-28T07:09:04.116Z,15.08
2022-08-28T07:10:35.491Z,11.11
2022-08-28T07:12:06.893Z,12.13
2022-08-28T07:13:38.341Z,9.03
2022-08-28T07:15:09.776Z,11.86
2022-08-28T07:16:41.216Z,10.68
2022-08-28T07:18:12.987Z,10.39
2022-08-28T07:20:20.357Z,10.69
2022-08-28T07:21:54.394Z,8.31
2022-08-28T07:23:26.109Z,11.88
2022-08-28T07:24:57.468Z,11.93
2022-08-28T07:26:29.155Z,9.12
2022-08-28T07:28:02.279Z,11.02
2022-08-28T07:29:33.625Z,14.22
2022-08-28T07:31:05.334Z,11.97
2022-08-28T07:32:36.993Z,8.88
2022-08-28T07:34:08.604Z,13.08
2022-08-28T07:35:40.166Z,15.06
2022-08-28T07:37:15.258Z,10.40
2022-08-28T07:38:46.764Z,10.99
2022-08-28T07:40:18.222Z,11.73
2022-08-28T07:41:49.781Z,12.43
2022-08-28T07:43:21.192Z,10.72
2022-08-28T07:44:52.518Z,9.74
2022-08-28T07:46:24.688Z,14.02
2022-08-28T07:47:56.430Z,15.05
2022-08-28T07:49:27.757Z,12.70
2022-08-28T07:50:59.165Z,14.47
2022-08-28T07:52:30.595Z,16.40
2022-08-28T07:54:02.162Z,14.01
2022-08-28T07:55:43.558Z,11.95
2022-08-28T07:57:15.065Z,14.64
2022-08-28T07:58:46.386Z,12.94
2022-08-28T08:00:18.082Z,11.64
2022-08-28T08:01:50.429Z,10.63
2022-08-28T08:03:22.023Z,9.41
2022-08-28T08:04:53.501Z,9.03
2022-08-28T08:06:25.128Z,9.11
2022-08-28T08:07:59.427Z,10.73
2022-08-28T08:09:30.963Z,9.28
2022-08-28T08:11:02.742Z,8.23
2022-08-28T08:12:35.007Z,9.44
2022-08-28T08:14:07.981Z,10.76
2022-08-28T08:15:39.656Z,10.78
2022-08-28T08:17:11.139Z,15.79
2022-08-28T08:18:42.949Z,12.12
2022-08-28T08:20:14.431Z,10.17
2022-08-28T08:21:45.843Z,11.33
2022-08-28T08:23:17.519Z,10.73
2022-08-28T08:24:48.992Z,9.63
2022-08-28T08:26:20.701Z,11.77
2022-08-28T08:27:52.033Z,14.27
2022-08-28T08:29:23.563Z,12.66
2022-08-28T08:30:54.932Z,11.78
2022-08-28T08:32:26.315Z,10.54
2022-08-28T08:33:57.719Z,12.05
2022-08-28T08:35:29.131Z,9.93
2022-08-28T08:37:00.441Z,8.49
2022-08-28T08:38:31.761Z,10.81
2022-08-28T08:40:05.555Z,9.85
2022-08-28T08:41:40.275Z,11.20
2022-08-28T08:43:11.829Z,9.66
2022-08-28T08:44:43.385Z,11.14
2022-08-28T08:46:14.935Z,11.64
2022-08-28T08:47:46.311Z,10.53
2022-08-28T08:49:17.721Z,11.68
2022-08-28T08:50:49.428Z,12.25
2022-08-28T08:52:20.850Z,9.76
2022-08-28T08:53:52.294Z,10.60
2022-08-28T08:55:23.602Z,14.35
2022-08-28T08:56:54.979Z,10.87
2022-08-28T08:58:26.470Z,12.87
2022-08-28T08:59:57.868Z,14.60
2022-08-28T09:01:29.644Z,10.85
2022-08-28T09:03:01.215Z,12.50
2022-08-28T09:04:32.935Z,8.83
2022-08-28T09:06:04.305Z,11.09
2022-08-28T09:07:35.729Z,10.66
2022-08-28T09:09:07.003Z,15.81
2022-08-28T09:10:38.381Z,11.62
2022-08-28T09:12:10.091Z,8.37
2022-08-28T09:13:41.606Z,10.07
2022-08-28T09:15:12.886Z,6.60
2022-08-28T09:16:44.403Z,8.72
2022-08-28T09:18:16.044Z,8.63
2022-08-28T09:19:47.818Z,7.52
2022-08-28T09:21:19.203Z,7.27
2022-08-28T09:22:50.546Z,7.57
2022-08-28T09:24:26.894Z,10.31
2022-08-28T09:25:59.803Z,9.03
2022-08-28T09:27:33.166Z,8.71
2022-08-28T09:29:08.014Z,11.44
2022-08-28T09:30:39.582Z,14.01
2022-08-28T09:32:11.313Z,10.68
2022-08-28T09:33:42.936Z,8.89
2022-08-28T09:35:14.633Z,9.94
2022-08-28T09:36:45.971Z,9.99
2022-08-28T09:38:18.574Z,8.75
2022-08-28T09:39:50.034Z,7.40
2022-08-28T09:41:21.513Z,10.08
2022-08-28T09:42:53.026Z,7.38
2022-08-28T09:44:24.366Z,11.29
2022-08-28T09:45:55.898Z,11.46
2022-08-28T09:47:27.532Z,9.43
2022-08-28T09:48:58.828Z,8.39
2022-08-28T09:50:30.498Z,9.94
2022-08-28T09:52:02.004Z,9.39
2022-08-28T09:53:33.410Z,12.04
2022-08-28T09:55:05.058Z,11.65
2022-08-28T09:56:36.966Z,10.88
2022-08-28T09:58:08.349Z,10.21
2022-08-28T09:59:40.072Z,7.47
2022-08-28T10:01:11.749Z,8.09
2022-08-28T10:02:43.188Z,10.06
2022-08-28T10:04:14.842Z,10.45
2022-08-28T10:05:46.244Z,11.46
2022-08-28T10:07:18.068Z,11.78
2022-08-28T10:08:49.401Z,10.38
2022-08-28T10:10:20.748Z,12.18
2022-08-28T10:11:53.527Z,8.53
2022-08-28T10:13:25.369Z,9.31
2022-08-28T10:14:56.883Z,8.49
2022-08-28T10:16:28.688Z,10.68
2022-08-28T10:18:00.212Z,9.57
2022-08-28T10:19:31.714Z,10.21
2022-08-28T10:21:03.164Z,10.31
2022-08-28T10:22:35.875Z,11.05
2022-08-28T10:24:07.573Z,12.85
2022-08-28T10:25:40.077Z,12.51
2022-08-28T10:27:11.867Z,7.79
2022-08-28T10:28:43.354Z,10.93
2022-08-28T10:30:14.979Z,6.72
2022-08-28T10:31:46.687Z,7.94
2022-08-28T10:33:18.192Z,7.05
2022-08-28T10:34:49.571Z,7.66
2022-08-28T10:36:32.909Z,10.94
2022-08-28T10:38:05.889Z,6.72
2022-08-28T10:39:37.281Z,5.38
2022-08-28T10:41:08.809Z,8.17
2022-08-28T10:42:40.556Z,5.93
2022-08-28T10:44:12.017Z,6.75
2022-08-28T10:45:43.426Z,8.14
2022-08-28T10:47:15.496Z,7.91
2022-08-28T10:48:46.984Z,9.89
2022-08-28T10:50:34.686Z,8.46
2022-08-28T10:52:06.012Z,8.33
2022-08-28T10:53:37.565Z,9.57
2022-08-28T10:55:09.124Z,6.77
2022-08-28T10:56:40.807Z,6.68
2022-08-28T10:58:24.585Z,10.63
2022-08-28T11:00:01.818Z,9.30
2022-08-28T11:01:33.400Z,8.47
2022-08-28T11:03:05.004Z,6.80
2022-08-28T11:04:37.175Z,6.96
2022-08-28T11:06:08.616Z,5.46
2022-08-28T11:07:40.084Z,5.50
2022-08-28T11:09:11.774Z,5.86
2022-08-28T11:10:43.336Z,5.23
2022-08-28T11:12:15.440Z,8.39
2022-08-28T11:13:46.961Z,7.43
2022-08-28T11:15:18.428Z,7.44
2022-08-28T11:17:01.910Z,7.09
2022-08-28T11:18:33.458Z,8.06
2022-08-28T11:20:04.916Z,7.12
2022-08-28T11:21:36.432Z,7.22
2022-08-28T11:23:08.020Z,6.03
2022-08-28T11:24:39.498Z,7.34
2022-08-28T11:26:15.268Z,9.14
2022-08-28T11:27:46.922Z,6.52
2022-08-28T11:29:18.487Z,7.07
2022-08-28T11:30:50.489Z,6.86
2022-08-28T11:32:21.991Z,6.15
2022-08-28T11:33:53.507Z,7.21
2022-08-28T11:35:24.941Z,7.28
2022-08-28T11:36:56.480Z,6.85
2022-08-28T11:38:28.028Z,3.80
2022-08-28T11:39:59.872Z,6.27
2022-08-28T11:41:31.477Z,6.54
2022-08-28T11:43:02.907Z,6.55
2022-08-28T11:44:34.370Z,6.11
2022-08-28T11:46:05.902Z,8.22
2022-08-28T11:47:37.448Z,7.13
2022-08-28T11:49:09.034Z,7.30
2022-08-28T11:50:40.520Z,5.71
2022-08-28T11:52:12.178Z,6.08
2022-08-28T11:53:43.633Z,6.68
2022-08-28T11:55:15.058Z,7.80
2022-08-28T11:56:46.693Z,7.77
2022-08-28T11:58:18.175Z,7.85
2022-08-28T11:59:49.660Z,7.55
2022-08-28T12:01:21.297Z,7.47
2022-08-28T12:02:52.905Z,7.82
2022-08-28T12:04:24.531Z,6.38
2022-08-28T12:05:56.236Z,7.15
2022-08-28T12:07:27.775Z,5.03
2022-08-28T12:08:59.249Z,4.64
2022-08-28T12:10:30.812Z,7.67
2022-08-28T12:12:03.435Z,5.70
2022-08-28T12:13:35.069Z,6.22
2022-08-28T12:15:06.609Z,5.21
2022-08-28T12:16:38.087Z,7.28
2022-08-28T12:18:09.737Z,5.04
2022-08-28T12:19:52.540Z,6.08
2022-08-28T12:21:27.749Z,6.64
2022-08-28T12:22:59.240Z,7.04
2022-08-28T12:24:30.692Z,6.01
2022-08-28T12:26:02.257Z,4.66
2022-08-28T12:27:33.799Z,5.37
2022-08-28T12:29:05.373Z,5.98
2022-08-28T12:30:36.934Z,5.42
2022-08-28T12:32:08.554Z,7.23
2022-08-28T12:33:45.269Z,4.37
2022-08-28T12:35:55.197Z,4.70
2022-08-28T12:37:26.690Z,5.99
2022-08-28T12:38:58.286Z,6.08
2022-08-28T12:40:29.925Z,10.23
2022-08-28T12:42:01.574Z,7.52
2022-08-28T12:43:33.479Z,7.56
2022-08-28T12:45:05.203Z,6.63
2022-08-28T12:46:36.846Z,6.39
2022-08-28T12:48:08.430Z,7.27
2022-08-28T12:49:40.082Z,6.79
2022-08-28T12:51:11.700Z,6.68
2022-08-28T12:52:43.603Z,6.79
2022-08-28T12:54:15.187Z,4.62
2022-08-28T12:55:46.978Z,6.50
2022-08-28T12:57:18.503Z,5.74
2022-08-28T12:58:50.196Z,5.02
2022-08-28T13:00:21.738Z,5.06
2022-08-28T13:01:53.475Z,5.36
2022-08-28T13:03:25.101Z,6.42
2022-08-28T13:04:56.703Z,5.73
2022-08-28T13:06:28.965Z,5.25
2022-08-28T13:08:01.783Z,5.27
2022-08-28T13:09:33.987Z,6.86
2022-08-28T13:11:05.882Z,6.18
2022-08-28T13:12:56.281Z,7.63
2022-08-28T13:14:29.563Z,6.71
2022-08-28T13:16:01.104Z,7.59
2022-08-28T13:17:32.678Z,5.69
2022-08-28T13:19:04.288Z,4.57
2022-08-28T13:20:36.254Z,6.07
2022-08-28T13:22:07.737Z,4.99
2022-08-28T13:23:39.356Z,6.55
2022-08-28T13:25:11.187Z,6.50
2022-08-28T13:26:47.274Z,6.25
2022-08-28T13:28:19.069Z,5.11
2022-08-28T13:29:51.863Z,5.85
2022-08-28T13:31:28.734Z,5.28
2022-08-28T13:33:00.209Z,5.77
2022-08-28T13:34:31.792Z,6.59
2022-08-28T13:36:03.399Z,7.45
2022-08-28T13:37:34.990Z,5.03
2022-08-28T13:39:06.494Z,6.44
2022-08-28T13:40:56.883Z,4.53
2022-08-28T13:42:29.807Z,6.11
2022-08-28T13:44:01.358Z,5.30
2022-08-28T13:45:35.641Z,5.26
2022-08-28T13:47:14.871Z,5.84
2022-08-28T13:48:46.490Z,5.21
2022-08-28T13:50:18.156Z,5.47
2022-08-28T13:51:49.749Z,6.34
2022-08-28T13:53:22.407Z,5.31
2022-08-28T13:54:54.060Z,5.01
2022-08-28T13:56:25.515Z,5.40
2022-08-28T13:57:56.947Z,6.09
2022-08-28T13:59:28.405Z,4.28
2022-08-28T14:01:00.005Z,5.04
2022-08-28T14:02:31.841Z,5.82
2022-08-28T14:04:03.565Z,5.29
2022-08-28T14:05:59.937Z,3.24
2022-08-28T14:07:31.458Z,5.10
2022-08-28T14:09:02.920Z,5.93
2022-08-28T14:10:34.734Z,5.11
2022-08-28T14:12:06.098Z,5.26
2022-08-28T14:13:37.560Z,5.68
2022-08-28T14:15:08.935Z,5.40
2022-08-28T14:16:40.564Z,4.97
2022-08-28T14:18:12.069Z,5.22
2022-08-28T14:19:43.723Z,5.66
2022-08-28T14:21:15.175Z,4.82
2022-08-28T14:22:46.687Z,6.78
2022-08-28T14:24:18.190Z,5.18
2022-08-28T14:25:49.629Z,4.22
2022-08-28T14:27:21.255Z,3.81
2022-08-28T14:28:52.670Z,4.80
2022-08-28T14:30:38.846Z,4.41
2022-08-28T14:32:10.768Z,5.98
2022-08-28T14:33:42.441Z,7.02
2022-08-28T14:35:16.839Z,5.51
2022-08-28T14:36:48.319Z,5.19
2022-08-28T14:38:19.696Z,5.12
2022-08-28T14:39:51.108Z,5.08
2022-08-28T14:41:22.475Z,6.81
2022-08-28T14:42:53.869Z,6.36
2022-08-28T14:44:25.258Z,4.82
2022-08-28T14:45:56.799Z,4.44
2022-08-28T14:47:47.994Z,5.84
2022-08-28T14:49:19.772Z,5.27
2022-08-28T14:50:51.673Z,4.40
2022-08-28T14:52:23.249Z,5.98
2022-08-28T14:53:55.119Z,5.49
2022-08-28T14:55:27.148Z,5.18
2022-08-28T14:57:08.791Z,6.51
2022-08-28T14:58:40.381Z,5.61
2022-08-28T15:00:16.922Z,5.02
2022-08-28T15:01:48.311Z,5.66
2022-08-28T15:03:19.859Z,4.86
2022-08-28T15:04:51.376Z,4.28
2022-08-28T15:06:23.029Z,5.00
2022-08-28T15:07:54.529Z,5.29
2022-08-28T15:09:26.053Z,5.27
2022-08-28T15:10:57.486Z,5.64
2022-08-28T15:12:29.102Z,6.30
2022-08-28T15:14:00.638Z,4.75
2022-08-28T15:15:32.572Z,6.65
2022-08-28T15:17:04.016Z,3.92
2022-08-28T15:18:35.853Z,4.55
2022-08-28T15:20:07.481Z,4.63
2022-08-28T15:21:44.007Z,3.75
2022-08-28T15:23:15.766Z,4.36
2022-08-28T15:24:48.627Z,5.53
2022-08-28T15:26:20.248Z,5.67
2022-08-28T15:27:51.762Z,4.26
2022-08-28T15:29:23.222Z,4.70
2022-08-28T15:30:54.836Z,4.58
2022-08-28T15:32:26.388Z,6.25
2022-08-28T15:33:58.324Z,4.65
2022-08-28T15:35:30.049Z,5.34
2022-08-28T15:37:01.605Z,3.68
2022-08-28T15:38:35.743Z,4.29
2022-08-28T15:40:12.291Z,4.06
2022-08-28T15:41:43.829Z,5.83
2022-08-28T15:43:15.751Z,6.29
2022-08-28T15:44:47.371Z,5.92
2022-08-28T15:46:18.809Z,6.37
2022-08-28T15:47:50.569Z,5.07
2022-08-28T15:49:23.783Z,3.64
2022-08-28T15:50:55.864Z,5.29
2022-08-28T15:52:28.388Z,5.86
2022-08-28T15:53:59.951Z,4.95
2022-08-28T15:55:31.429Z,3.72
2022-08-28T15:57:08.038Z,3.44
2022-08-28T15:58:39.654Z,4.77
2022-08-28T16:00:11.241Z,5.95
2022-08-28T16:01:44.048Z,6.42
2022-08-28T16:03:15.951Z,5.00
2022-08-28T16:04:49.166Z,6.37
2022-08-28T16:06:20.695Z,5.24
2022-08-28T16:07:52.706Z,5.11
2022-08-28T16:09:29.386Z,6.12
2022-08-28T16:11:01.106Z,6.14
2022-08-28T16:12:32.619Z,5.67
2022-08-28T16:14:04.339Z,4.74
2022-08-28T16:15:35.826Z,4.38
2022-08-28T16:17:10.709Z,4.62
2022-08-28T16:18:42.797Z,5.24
2022-08-28T16:20:14.510Z,6.10
2022-08-28T16:21:46.019Z,5.30
2022-08-28T16:23:17.548Z,3.29
2022-08-28T16:24:49.190Z,6.39
2022-08-28T16:26:20.677Z,7.17
2022-08-28T16:27:52.163Z,3.25
2022-08-28T16:29:23.632Z,5.26
2022-08-28T16:31:00.108Z,4.97
2022-08-28T16:32:31.697Z,4.09
2022-08-28T16:34:03.721Z,4.75
2022-08-28T16:35:35.663Z,4.76
2022-08-28T16:37:08.665Z,5.82
2022-08-28T16:38:40.424Z,4.91
2022-08-28T16:40:12.415Z,4.68
2022-08-28T16:41:46.902Z,5.90
2022-08-28T16:43:28.430Z,5.31
2022-08-28T16:45:05.169Z,6.07
2022-08-28T16:46:36.888Z,4.64
2022-08-28T16:48:13.662Z,4.55
2022-08-28T16:49:45.437Z,4.03
2022-08-28T16:51:17.109Z,5.44
2022-08-28T16:52:48.648Z,4.76
2022-08-28T16:54:20.216Z,4.45
2022-08-28T16:55:51.743Z,5.65
2022-08-28T16:57:23.269Z,5.06
2022-08-28T16:58:54.776Z,6.15
2022-08-28T17:00:26.315Z,4.86
2022-08-28T17:01:57.980Z,7.60
2022-08-28T17:03:29.571Z,6.25
2022-08-28T17:05:11.044Z,6.76
2022-08-28T17:06:42.681Z,5.74
2022-08-28T17:08:19.510Z,5.64
2022-08-28T17:09:51.076Z,5.53
2022-08-28T17:11:22.947Z,5.55
2022-08-28T17:12:54.610Z,5.08
2022-08-28T17:14:26.388Z,3.93
2022-08-28T17:15:58.293Z,3.99
2022-08-28T17:17:30.072Z,3.95
2022-08-28T17:19:12.670Z,3.34
2022-08-28T17:20:44.067Z,6.32
2022-08-28T17:22:15.640Z,6.87
2022-08-28T17:23:47.170Z,4.83
2022-08-28T17:25:18.615Z,4.20
2022-08-28T17:26:50.255Z,4.55
2022-08-28T17:28:22.111Z,4.06
2022-08-28T17:29:53.678Z,4.65
2022-08-28T17:31:25.384Z,5.54
2022-08-28T17:32:56.984Z,4.95
2022-08-28T17:34:30.385Z,4.84
2022-08-28T17:36:02.417Z,5.84
2022-08-28T17:37:34.286Z,5.28
2022-08-28T17:39:06.046Z,5.75
2022-08-28T17:40:37.703Z,5.56
2022-08-28T17:42:29.482Z,5.41
2022-08-28T17:44:01.392Z,4.34
2022-08-28T17:45:32.905Z,4.57
2022-08-28T17:47:04.925Z,6.30
2022-08-28T17:48:55.599Z,3.85
2022-08-28T17:50:27.842Z,5.24
2022-08-28T17:51:59.270Z,5.94
2022-08-28T17:53:30.916Z,6.04
2022-08-28T17:57:03.067Z,5.16
2022-08-28T17:58:37.541Z,5.18
2022-08-28T18:00:09.413Z,4.60
2022-08-28T18:01:41.293Z,4.34
2022-08-28T18:03:13.022Z,5.53
2022-08-28T18:04:44.720Z,7.38
2022-08-28T18:06:21.489Z,7.08
2022-08-28T18:07:52.985Z,5.64
2022-08-28T18:09:24.562Z,4.94
2022-08-28T18:10:55.925Z,6.54
2022-08-28T18:12:33.224Z,6.14
2022-08-28T18:14:04.673Z,5.75
2022-08-28T18:15:36.983Z,5.72
2022-08-28T18:17:09.162Z,5.97
2022-08-28T18:18:40.811Z,5.80
2022-08-28T18:20:12.229Z,5.00
2022-08-28T18:21:43.962Z,4.91
2022-08-28T18:23:15.529Z,7.23
2022-08-28T18:24:47.059Z,6.82
2022-08-28T18:26:18.620Z,6.57
2022-08-28T18:27:50.191Z,5.46
2022-08-28T18:29:21.955Z,6.60
2022-08-28T18:30:58.700Z,6.71
2022-08-28T18:32:30.671Z,6.85
2022-08-28T18:34:02.110Z,6.52
2022-08-28T18:35:34.054Z,6.54
2022-08-28T18:37:16.253Z,6.21
2022-08-28T18:38:48.248Z,6.71
2022-08-28T18:40:24.960Z,9.27
2022-08-28T18:41:56.431Z,9.12
2022-08-28T18:43:28.271Z,8.43
2022-08-28T18:44:59.604Z,7.06
2022-08-28T18:46:31.476Z,6.79
2022-08-28T18:48:03.502Z,6.22
2022-08-28T18:49:34.880Z,6.88
2022-08-28T18:51:16.308Z,7.09
2022-08-28T18:52:53.382Z,7.22
2022-08-28T18:54:24.910Z,8.60
2022-08-28T18:55:56.853Z,7.53
2022-08-28T18:57:36.914Z,7.77
2022-08-28T18:59:08.865Z,10.51
2022-08-28T19:00:40.204Z,6.89
2022-08-28T19:02:11.917Z,7.12
2022-08-28T19:03:43.928Z,6.62
2022-08-28T19:05:17.094Z,7.21
2022-08-28T19:06:48.617Z,5.08
2022-08-28T19:08:20.188Z,7.01
2022-08-28T19:10:01.541Z,6.81
2022-08-28T19:11:38.057Z,6.49
2022-08-28T19:13:16.179Z,5.44
2022-08-28T19:14:47.711Z,5.48
2022-08-28T19:16:19.205Z,7.57
2022-08-28T19:17:50.619Z,8.08
2022-08-28T19:21:20.766Z,6.75
2022-08-28T19:22:52.281Z,7.59
2022-08-28T19:24:23.721Z,5.41
2022-08-28T19:25:55.617Z,6.50
2022-08-28T19:27:27.132Z,5.03
2022-08-28T19:28:58.578Z,7.11
2022-08-28T19:30:31.109Z,6.82
2022-08-28T19:32:02.443Z,7.35
2022-08-28T19:33:34.972Z,6.79
2022-08-28T19:35:06.694Z,6.54
2022-08-28T19:36:38.549Z,8.24
2022-08-28T19:38:10.117Z,6.81
2022-08-28T19:39:41.839Z,6.67
2022-08-28T19:41:22.695Z,6.85
2022-08-28T19:42:54.134Z,7.77
2022-08-28T19:44:26.081Z,7.24
2022-08-28T19:47:52.393Z,6.25
2022-08-28T19:49:24.117Z,7.16
2022-08-28T19:50:56.029Z,6.28
2022-08-28T19:52:27.580Z,5.63
2022-08-28T19:53:59.153Z,7.06
2022-08-28T19:55:30.588Z,6.47
2022-08-28T19:57:07.598Z,7.39
2022-08-28T19:58:39.069Z,6.08
2022-08-28T20:00:16.689Z,5.85
2022-08-28T20:01:49.281Z,6.15
2022-08-28T20:03:20.742Z,6.86
2022-08-28T20:04:52.508Z,7.29
2022-08-28T20:06:29.509Z,7.30
2022-08-28T20:08:00.863Z,6.24
2022-08-28T20:09:32.160Z,6.13
2022-08-28T20:11:03.751Z,5.04
2022-08-28T20:12:35.110Z,5.87
2022-08-28T20:14:07.960Z,5.43
2022-08-28T20:15:49.795Z,6.04
2022-08-28T20:17:21.478Z,5.40
2022-08-28T20:18:53.041Z,5.87
2022-08-28T20:20:26.799Z,6.27